Time;durP1;ratioP1;P1;durP2;ratioP2;P2;SDS_P1;SDS_P2;PMS_P1;PMS_P2;Temp;Humidity;BMP_temperature;BMP_pressure;BME280_temperature;BME280_humidity;BME280_pressure;Samples;Min_cycle;Max_cycle;Signal;HPM_P1;HPM_P2
2022/10/31 00:00:33;;;;;;;22.98;11.77;;;;;;;10.56;97.38;99617.91;8516273;27;20046;-79
2022/10/31 00:04:54;;;;;;;26.95;11.95;;;;;;;10.55;97.10;99621.69;8507633;27;20476;-79
2022/10/31 00:08:57;;;;;;;23.02;11.77;;;;;;;10.52;97.45;99622.28;8500348;27;20534;-80
2022/10/31 00:12:58;;;;;;;29.77;11.82;;;;;;;10.48;97.41;99621.25;8491244;27;20050;-80
2022/10/31 00:16:59;;;;;;;27.58;12.18;;;;;;;10.47;97.38;99619.66;8513501;27;20047;-80
2022/10/31 00:21:01;;;;;;;37.95;10.82;;;;;;;10.44;97.25;99625.66;8499782;27;21310;-79
2022/10/31 00:25:02;;;;;;;27.08;10.98;;;;;;;10.40;97.12;99621.94;8500368;27;20441;-79
2022/10/31 00:29:03;;;;;;;26.30;11.18;;;;;;;10.37;97.24;99630.63;8461515;27;20059;-79
2022/10/31 00:33:05;;;;;;;31.75;11.90;;;;;;;10.36;97.19;99629.03;8504976;27;20047;-79
2022/10/31 00:37:05;;;;;;;25.27;11.18;;;;;;;10.35;97.14;99627.44;8497870;27;20047;-79
2022/10/31 00:41:06;;;;;;;25.83;11.88;;;;;;;10.35;97.06;99627.44;8468001;27;20426;-79
2022/10/31 00:45:09;;;;;;;29.48;11.45;;;;;;;10.35;97.14;99632.84;8497905;27;20070;-79
2022/10/31 00:49:11;;;;;;;29.90;11.10;;;;;;;10.33;97.02;99629.63;8510705;27;20103;-79
2022/10/31 00:53:12;;;;;;;29.40;11.35;;;;;;;10.31;96.95;99642.59;8503752;27;20040;-80
2022/10/31 00:57:13;;;;;;;29.40;11.50;;;;;;;10.31;96.89;99637.19;8496915;27;20361;-80
2022/10/31 01:01:13;;;;;;;32.35;11.25;;;;;;;10.30;97.06;99635.63;8506697;27;20051;-80
2022/10/31 01:05:15;;;;;;;25.75;11.02;;;;;;;10.28;97.18;99632.41;8508865;27;20099;-80
2022/10/31 01:09:16;;;;;;;27.52;10.13;;;;;;;10.25;97.08;99627.59;8500003;27;20039;-80
2022/10/31 01:13:17;;;;;;;27.77;10.65;;;;;;;10.22;96.87;99628.16;8512466;27;20053;-80
2022/10/31 01:17:18;;;;;;;37.33;10.48;;;;;;;10.20;96.82;99630.38;8499678;27;20174;-80
2022/10/31 01:21:21;;;;;;;20.88;10.52;;;;;;;10.19;96.89;99639.56;8498449;27;20035;-80
2022/10/31 01:25:22;;;;;;;30.95;10.40;;;;;;;10.17;96.99;99636.34;8484371;27;20039;-81
2022/10/31 01:29:23;;;;;;;25.63;10.07;;;;;;;10.20;96.94;99635.78;8508290;27;20050;-80
2022/10/31 01:33:24;;;;;;;22.45;9.77;;;;;;;10.19;96.87;99639.56;8505810;27;20039;-81
2022/10/31 01:37:25;;;;;;;31.67;9.43;;;;;;;10.17;96.79;99649.84;8506018;27;20043;-81
2022/10/31 01:41:28;;;;;;;24.35;9.98;;;;;;;10.15;96.87;99641.22;8485730;27;20452;-80
2022/10/31 01:45:29;;;;;;;22.17;9.40;;;;;;;10.14;96.83;99639.59;8451825;27;20055;-80
2022/10/31 01:49:37;;;;;;;27.25;10.48;;;;;;;10.11;96.96;99637.47;8507573;27;20683;-80
2022/10/31 01:53:38;;;;;;;27.03;10.13;;;;;;;10.06;97.05;99641.06;8510275;27;20040;-80
2022/10/31 01:57:41;;;;;;;25.92;9.30;;;;;;;10.00;97.24;99641.41;8505488;27;20442;-79
2022/10/31 02:01:42;;;;;;;30.58;9.38;;;;;;;9.98;97.00;99643.63;8478642;27;20107;-80
2022/10/31 02:05:43;;;;;;;23.73;8.98;;;;;;;9.95;97.29;99638.78;8430065;27;20046;-80
2022/10/31 02:09:46;;;;;;;36.45;10.77;;;;;;;9.92;97.17;99633.97;8484161;27;20043;-80
2022/10/31 02:13:47;;;;;;;23.58;9.85;;;;;;;9.87;97.54;99644.84;8480066;27;20051;-80
2022/10/31 02:17:48;;;;;;;28.52;10.07;;;;;;;9.85;97.66;99644.31;8496026;27;20047;-80
2022/10/31 02:21:54;;;;;;;22.45;10.35;;;;;;;9.80;97.76;99647.09;8496007;27;20470;-80
2022/10/31 02:26:18;;;;;;;27.20;10.57;;;;;;;9.77;98.05;99647.69;8517220;27;20061;-80
2022/10/31 02:30:23;;;;;;;23.88;10.10;;;;;;;9.72;98.00;99646.66;8344678;28;20049;-80
2022/10/31 02:34:30;;;;;;;25.55;10.00;;;;;;;9.68;98.25;99651.00;8320390;28;20117;-80
2022/10/31 02:38:54;;;;;;;29.90;9.88;;;;;;;9.63;98.16;99659.16;8310715;28;20048;-80
2022/10/31 02:43:01;;;;;;;24.88;9.50;;;;;;;9.59;98.26;99652.75;8244277;28;20054;-80
2022/10/31 02:47:17;;;;;;;28.23;11.48;;;;;;;9.56;98.31;99653.34;8243800;28;20057;-80
2022/10/31 02:51:19;;;;;;;31.23;10.75;;;;;;;9.55;98.41;99657.13;8244381;28;20160;-80
2022/10/31 02:55:22;;;;;;;23.17;10.65;;;;;;;9.51;98.68;99656.09;8247547;28;20142;-80
2022/10/31 02:59:23;;;;;;;25.48;10.25;;;;;;;9.49;98.70;99666.34;8248944;28;20053;-80
2022/10/31 03:03:33;;;;;;;26.38;10.55;;;;;;;9.46;98.56;99664.25;8232428;28;20054;-80
2022/10/31 03:07:56;;;;;;;25.17;10.10;;;;;;;9.46;98.49;99664.25;8340210;28;20057;-80
2022/10/31 03:12:15;;;;;;;25.48;10.13;;;;;;;9.45;98.52;99659.94;8378776;28;20045;-79
2022/10/31 03:16:31;;;;;;;30.98;12.07;;;;;;;9.45;98.44;99676.13;8362701;28;20048;-80
2022/10/31 03:20:40;;;;;;;25.55;10.10;;;;;;;9.46;98.41;99675.03;8488481;27;20574;-80
2022/10/31 03:24:41;;;;;;;25.98;10.25;;;;;;;9.43;98.36;99680.97;8494565;27;20055;-79
2022/10/31 03:28:55;;;;;;;24.58;9.95;;;;;;;9.39;98.81;99674.56;8509363;27;20096;-80
2022/10/31 03:32:57;;;;;;;27.25;9.68;;;;;;;9.38;98.49;99672.94;8488330;27;20539;-80
2022/10/31 03:37:02;;;;;;;21.45;10.07;;;;;;;9.38;98.58;99674.84;8492472;27;20257;-80
2022/10/31 03:41:04;;;;;;;23.10;10.52;;;;;;;9.36;98.62;99675.13;8458975;27;20484;-79
2022/10/31 03:45:08;;;;;;;29.70;10.82;;;;;;;9.36;98.62;99680.50;8480728;27;20051;-80
2022/10/31 03:49:09;;;;;;;24.83;10.07;;;;;;;9.35;98.61;99684.31;8513721;27;20488;-80
2022/10/31 03:53:16;;;;;;;24.00;9.80;;;;;;;9.32;98.62;99684.88;8487875;27;20062;-79
2022/10/31 03:57:37;;;;;;;21.90;9.32;;;;;;;9.29;98.46;99690.84;8492227;27;20101;-80
2022/10/31 04:01:41;;;;;;;23.85;10.38;;;;;;;9.28;98.47;99681.16;8459159;27;20067;-80
2022/10/31 04:05:44;;;;;;;27.02;9.88;;;;;;;9.24;98.68;99688.22;8486100;27;20063;-80
2022/10/31 04:09:45;;;;;;;28.38;10.88;;;;;;;9.22;98.85;99684.97;8480738;27;20047;-80
2022/10/31 04:13:48;;;;;;;24.10;9.60;;;;;;;9.19;98.74;99696.34;8480834;27;20070;-80
2022/10/31 04:17:51;;;;;;;22.30;9.50;;;;;;;9.17;98.91;99695.81;8499994;27;20054;-80
2022/10/31 04:21:52;;;;;;;26.02;9.85;;;;;;;9.15;98.94;99696.09;8480516;27;20043;-80
2022/10/31 04:25:53;;;;;;;24.58;9.35;;;;;;;9.13;99.24;99692.09;8505302;27;20458;-79
2022/10/31 04:29:53;;;;;;;28.13;9.95;;;;;;;9.10;99.30;99687.25;8464026;27;20552;-80
2022/10/31 04:33:54;;;;;;;28.02;10.60;;;;;;;9.06;99.38;99697.00;8508336;27;20081;-81
2022/10/31 04:37:55;;;;;;;21.20;10.10;;;;;;;9.02;99.18;99687.88;8467659;27;20047;-80
2022/10/31 04:41:56;;;;;;;23.30;9.60;;;;;;;9.00;99.13;99692.75;8488484;27;20057;-80
2022/10/31 04:45:57;;;;;;;29.10;10.68;;;;;;;9.00;99.22;99690.06;8504782;27;20046;-80
2022/10/31 04:49:58;;;;;;;23.85;10.05;;;;;;;8.98;99.27;99690.34;8517753;27;20054;-80
2022/10/31 04:53:59;;;;;;;22.80;9.55;;;;;;;8.96;99.30;99686.31;8504799;27;20050;-80
2022/10/31 04:57:59;;;;;;;26.10;10.25;;;;;;;8.97;99.27;99693.31;8497122;27;20047;-80
2022/10/31 05:02:00;;;;;;;26.38;10.15;;;;;;;9.01;99.11;99688.97;8496500;27;20051;-81
2022/10/31 05:06:01;;;;;;;31.05;11.05;;;;;;;9.01;99.19;99686.28;8478626;27;20134;-80
2022/10/31 05:10:02;;;;;;;30.27;10.38;;;;;;;9.01;99.20;99688.97;8504961;27;20049;-80
2022/10/31 05:14:03;;;;;;;22.27;10.38;;;;;;;8.98;99.54;99694.94;8506145;27;20047;-81
2022/10/31 05:18:04;;;;;;;24.20;9.90;;;;;;;8.96;99.52;99691.72;8508542;27;20083;-80
2022/10/31 05:22:05;;;;;;;32.75;11.50;;;;;;;8.95;99.55;99704.38;8496690;27;20058;-80
2022/10/31 05:26:06;;;;;;;23.20;9.85;;;;;;;8.94;99.51;99699.25;8493745;27;20099;-80
2022/10/31 05:30:08;;;;;;;23.58;9.85;;;;;;;8.94;99.42;99715.44;8495499;27;20051;-81
2022/10/31 05:34:09;;;;;;;24.08;10.65;;;;;;;8.92;99.46;99707.66;8503666;27;20050;-80
2022/10/31 05:38:10;;;;;;;27.88;10.15;;;;;;;8.90;99.34;99710.63;8495370;27;20073;-80
2022/10/31 05:42:11;;;;;;;24.40;9.88;;;;;;;8.88;99.67;99718.16;8504496;27;20655;-80
2022/10/31 05:46:12;;;;;;;22.05;9.30;;;;;;;8.89;99.62;99719.78;8495213;27;20054;-80
2022/10/31 05:50:13;;;;;;;25.15;9.90;;;;;;;8.90;99.58;99716.00;8502285;27;20051;-80
2022/10/31 05:54:13;;;;;;;31.90;9.93;;;;;;;8.91;99.32;99716.81;8502076;27;20385;-81
2022/10/31 05:58:14;;;;;;;22.90;10.15;;;;;;;8.94;99.46;99727.00;8469948;27;20403;-81
2022/10/31 06:02:15;;;;;;;25.95;9.25;;;;;;;8.97;99.44;99731.03;8498781;27;20047;-80
2022/10/31 06:06:16;;;;;;;29.67;10.15;;;;;;;8.98;99.24;99733.47;8508187;27;20095;-80
2022/10/31 06:10:19;;;;;;;31.40;10.00;;;;;;;9.01;99.39;99726.69;8495005;27;20404;-81
2022/10/31 06:14:20;;;;;;;28.00;10.13;;;;;;;9.03;99.43;99736.09;8513305;27;20053;-81
2022/10/31 06:18:21;;;;;;;24.52;10.35;;;;;;;9.05;99.29;99738.50;8505073;27;20047;-81
2022/10/31 06:22:22;;;;;;;26.55;9.45;;;;;;;9.07;99.38;99739.03;8484043;27;20042;-80
2022/10/31 06:26:23;;;;;;;21.33;9.55;;;;;;;9.10;99.52;99741.16;8494436;27;20115;-81
2022/10/31 06:30:24;;;;;;;25.30;10.18;;;;;;;9.15;99.42;99743.78;8465955;27;20507;-81
2022/10/31 06:34:26;;;;;;;26.60;11.40;;;;;;;9.21;99.26;99748.06;8457951;27;20035;-80
2022/10/31 06:38:27;;;;;;;26.52;11.05;;;;;;;9.29;99.64;99750.16;8493990;28;20476;-81
2022/10/31 06:42:28;;;;;;;34.78;12.68;;;;;;;9.37;99.56;99754.91;8494188;27;20043;-81
2022/10/31 06:46:29;;;;;;;32.92;11.98;;;;;;;9.45;99.80;99759.69;8493783;27;20051;-81
2022/10/31 06:50:30;;;;;;;30.52;12.95;;;;;;;9.55;100.00;99759.59;8508519;27;20055;-81
2022/10/31 06:54:31;;;;;;;36.05;13.98;;;;;;;9.68;100.00;99753.50;8500740;27;20047;-80
2022/10/31 06:58:32;;;;;;;29.23;14.27;;;;;;;9.83;100.00;99760.63;8500831;27;20130;-81
2022/10/31 07:02:33;;;;;;;28.25;13.02;;;;;;;10.01;100.00;99759.06;8446925;27;20083;-80
2022/10/31 07:06:33;;;;;;;34.33;15.20;;;;;;;10.17;100.00;99755.09;8513980;27;20495;-80
2022/10/31 07:10:36;;;;;;;32.42;14.95;;;;;;;10.41;100.00;99766.66;8463850;27;20061;-80
2022/10/31 07:14:36;;;;;;;38.53;15.05;;;;;;;10.55;100.00;99767.53;8500319;27;20085;-80
2022/10/31 07:18:38;;;;;;;38.08;16.30;;;;;;;10.71;100.00;99775.41;8499715;27;20077;-80
2022/10/31 07:22:42;;;;;;;39.35;14.77;;;;;;;10.88;100.00;99775.69;8500008;27;20464;-81
2022/10/31 07:26:45;;;;;;;37.47;15.57;;;;;;;11.02;100.00;99781.94;8460880;27;20046;-81
2022/10/31 07:30:52;;;;;;;34.85;14.93;;;;;;;11.16;100.00;99788.19;8499848;27;20628;-81
2022/10/31 07:34:53;;;;;;;30.85;14.40;;;;;;;11.35;100.00;99780.84;8514228;27;20058;-80
2022/10/31 07:38:54;;;;;;;37.80;15.32;;;;;;;11.50;100.00;99781.66;8499588;27;20522;-80
2022/10/31 07:42:57;;;;;;;35.70;15.63;;;;;;;11.69;100.00;99785.09;8499238;27;20074;-81
2022/10/31 07:46:58;;;;;;;36.75;14.57;;;;;;;11.94;100.00;99781.16;8497711;27;20051;-80
2022/10/31 07:50:59;;;;;;;32.15;13.55;;;;;;;12.19;100.00;99784.13;8512248;27;20381;-80
2022/10/31 07:55:00;;;;;;;34.58;12.38;;;;;;;12.37;100.00;99779.72;8485016;27;20059;-80
2022/10/31 07:59:01;;;;;;;32.13;11.65;;;;;;;12.60;100.00;99788.66;8474614;27;20408;-80
2022/10/31 08:03:06;;;;;;;27.50;10.93;;;;;;;12.75;100.00;99796.44;8477295;27;20166;-81
2022/10/31 08:07:07;;;;;;;29.90;10.10;;;;;;;12.91;100.00;99789.56;8485543;27;20101;-81
2022/10/31 08:11:08;;;;;;;25.15;10.57;;;;;;;13.04;100.00;99788.72;8479585;27;20047;-81
2022/10/31 08:15:12;;;;;;;26.27;10.30;;;;;;;13.22;100.00;99794.31;8483145;27;20453;-80
2022/10/31 08:19:13;;;;;;;22.33;9.55;;;;;;;13.36;99.37;99795.81;8475812;27;20058;-80
2022/10/31 08:23:14;;;;;;;25.67;9.70;;;;;;;13.50;98.81;99795.72;8479045;27;20230;-81
2022/10/31 08:27:15;;;;;;;24.33;9.73;;;;;;;13.61;98.46;99788.94;8518165;27;20058;-81
2022/10/31 08:31:16;;;;;;;33.10;10.30;;;;;;;13.81;96.12;99799.22;8524785;27;20130;-80
2022/10/31 08:35:17;;;;;;;20.27;9.00;;;;;;;13.95;95.61;99797.25;8517761;27;20046;-80
2022/10/31 08:39:20;;;;;;;27.08;10.45;;;;;;;14.12;94.08;99801.09;8495089;27;20039;-80
2022/10/31 08:43:21;;;;;;;26.08;9.85;;;;;;;14.23;93.50;99807.84;8512652;27;20039;-79
2022/10/31 08:47:22;;;;;;;28.77;9.70;;;;;;;14.38;91.97;99805.50;8528340;27;20079;-79
2022/10/31 08:51:23;;;;;;;24.25;9.48;;;;;;;14.53;91.47;99796.13;8515834;27;20051;-80
2022/10/31 08:55:24;;;;;;;27.25;9.73;;;;;;;14.67;90.80;99806.84;8499811;27;20043;-80
2022/10/31 08:59:25;;;;;;;21.25;9.82;;;;;;;14.79;89.91;99805.09;8511025;27;20081;-80
2022/10/31 09:03:28;;;;;;;22.30;9.50;;;;;;;14.94;89.93;99811.19;8489695;27;20043;-80
2022/10/31 09:07:29;;;;;;;21.10;9.05;;;;;;;15.05;89.58;99801.56;8502643;27;20043;-79
2022/10/31 09:11:31;;;;;;;23.25;9.75;;;;;;;15.15;88.31;99801.25;8505520;27;20055;-80
2022/10/31 09:15:38;;;;;;;29.02;10.77;;;;;;;15.22;87.49;99807.00;8496596;27;20058;-79
2022/10/31 09:19:39;;;;;;;18.35;9.07;;;;;;;15.37;87.11;99803.78;8443873;27;20068;-80
2022/10/31 09:23:40;;;;;;;28.05;9.80;;;;;;;15.44;86.99;99806.78;8503379;27;20190;-81
2022/10/31 09:27:41;;;;;;;20.48;9.38;;;;;;;15.51;86.33;99798.97;8507217;27;20055;-80
2022/10/31 09:31:41;;;;;;;31.77;9.90;;;;;;;15.65;85.73;99804.19;8496472;27;20053;-80
2022/10/31 09:35:43;;;;;;;25.25;9.85;;;;;;;15.74;84.84;99806.91;8478299;27;20047;-78
2022/10/31 09:39:44;;;;;;;22.60;9.93;;;;;;;15.85;85.02;99805.44;8455799;27;20074;-80
2022/10/31 09:44:03;;;;;;;23.83;8.93;;;;;;;15.98;84.39;99809.84;8495621;27;20399;-78
2022/10/31 09:48:13;;;;;;;28.80;10.38;;;;;;;16.07;83.20;99810.63;8498314;27;20086;-79
2022/10/31 09:52:24;;;;;;;23.98;9.32;;;;;;;16.15;82.63;99806.25;8494468;27;20043;-79
2022/10/31 09:56:26;;;;;;;22.33;10.50;;;;;;;16.25;82.40;99812.13;8484675;27;20050;-78
2022/10/31 10:00:27;;;;;;;25.95;9.30;;;;;;;16.38;82.32;99816.56;8484865;27;20099;-79
2022/10/31 10:04:42;;;;;;;31.85;10.18;;;;;;;16.51;81.30;99813.91;8492189;27;20050;-79
2022/10/31 10:08:48;;;;;;;25.33;8.95;;;;;;;16.61;81.08;99813.53;8472452;27;20070;-79
2022/10/31 10:13:15;;;;;;;21.08;8.63;;;;;;;16.63;80.98;99811.28;8507463;27;20047;-79
2022/10/31 10:17:26;;;;;;;33.28;10.05;;;;;;;16.79;80.39;99815.03;8337501;28;20037;-80
2022/10/31 10:21:42;;;;;;;22.08;8.65;;;;;;;16.86;80.03;99809.84;8340921;28;20513;-80
2022/10/31 10:25:46;;;;;;;25.27;9.05;;;;;;;16.91;79.52;99815.09;8325173;28;20852;-80
2022/10/31 10:30:12;;;;;;;25.00;9.30;;;;;;;16.97;79.72;99811.03;8337507;28;20461;-80
2022/10/31 10:34:23;;;;;;;28.58;8.52;;;;;;;17.09;78.76;99808.34;8320560;28;20042;-79
2022/10/31 10:39:05;;;;;;;28.52;8.57;;;;;;;17.23;78.53;99803.41;8341658;28;20089;-79
2022/10/31 10:43:36;;;;;;;18.70;7.63;;;;;;;17.38;78.27;99803.91;8260756;28;20420;-78
2022/10/31 10:47:43;;;;;;;20.42;7.90;;;;;;;17.50;77.51;99795.75;8263721;28;20616;-78
2022/10/31 10:52:21;;;;;;;22.30;9.20;;;;;;;17.53;75.91;99800.53;8272521;28;20108;-79
2022/10/31 10:56:57;;;;;;;36.75;8.45;;;;;;;17.61;75.99;99802.41;8387966;28;20056;-78
2022/10/31 11:00:58;;;;;;;25.67;8.18;;;;;;;17.70;75.66;99789.47;8382167;28;20056;-78
2022/10/31 11:05:01;;;;;;;24.40;7.82;;;;;;;17.82;75.60;99797.66;8395702;28;21180;-79
2022/10/31 11:09:10;;;;;;;25.65;8.43;;;;;;;17.92;75.26;99790.97;8373374;28;20068;-78
2022/10/31 11:13:12;;;;;;;23.48;7.85;;;;;;;17.94;74.54;99794.94;8384891;28;20098;-79
2022/10/31 11:17:25;;;;;;;17.52;7.32;;;;;;;18.02;74.81;99796.78;8483187;27;20099;-78
2022/10/31 11:21:33;;;;;;;25.65;7.85;;;;;;;18.12;74.48;99796.31;8482842;27;20039;-78
2022/10/31 11:25:34;;;;;;;23.50;7.68;;;;;;;18.22;74.49;99792.31;8500274;27;20047;-79
2022/10/31 11:29:36;;;;;;;28.77;8.07;;;;;;;18.29;73.68;99789.03;8459547;27;20156;-79
2022/10/31 11:33:45;;;;;;;29.33;7.47;;;;;;;18.30;72.82;99785.13;8451307;28;20048;-79
2022/10/31 11:37:47;;;;;;;24.23;8.45;;;;;;;18.32;72.79;99793.78;8449343;28;20052;-79
2022/10/31 11:41:50;;;;;;;18.23;7.80;;;;;;;18.35;72.76;99782.16;8467141;28;20051;-78
2022/10/31 11:45:51;;;;;;;25.67;7.47;;;;;;;18.43;72.28;99789.47;8467461;28;20048;-78
2022/10/31 11:49:52;;;;;;;25.70;8.00;;;;;;;18.45;72.23;99787.19;8454484;28;20054;-79
2022/10/31 11:53:56;;;;;;;26.48;6.88;;;;;;;18.53;72.64;99783.50;8467033;28;20052;-79
2022/10/31 11:57:57;;;;;;;23.55;6.97;;;;;;;18.58;72.94;99786.03;8449893;28;20035;-79
2022/10/31 12:02:01;;;;;;;26.42;7.00;;;;;;;18.57;72.78;99778.97;8428571;27;20055;-79
2022/10/31 12:06:28;;;;;;;22.13;7.20;;;;;;;18.59;72.71;99768.50;8446631;27;20055;-80
2022/10/31 12:10:52;;;;;;;90.43;18.58;;;;;;;18.58;72.52;99780.56;8480816;27;20047;-80
2022/10/31 12:15:20;;;;;;;22.80;8.20;;;;;;;18.51;72.53;99774.84;8375419;28;20056;-80
2022/10/31 12:19:27;;;;;;;23.27;7.03;;;;;;;18.42;73.09;99771.44;8291460;28;20050;-80
2022/10/31 12:23:31;;;;;;;16.58;6.70;;;;;;;18.41;72.91;99775.31;8293075;28;20045;-78
2022/10/31 12:27:37;;;;;;;18.38;6.75;;;;;;;18.45;73.10;99776.25;8300625;28;20050;-79
2022/10/31 12:31:56;;;;;;;22.48;6.40;;;;;;;18.45;73.31;99776.25;8299113;28;20050;-80
2022/10/31 12:36:15;;;;;;;24.95;7.38;;;;;;;18.45;72.76;99768.03;8292707;28;20105;-80
2022/10/31 12:40:33;;;;;;;20.15;6.50;;;;;;;18.48;72.93;99770.06;8300226;28;20058;-79
2022/10/31 12:44:51;;;;;;;25.33;7.75;;;;;;;18.48;73.02;99764.59;8299518;28;20089;-79
2022/10/31 12:49:19;;;;;;;23.58;7.30;;;;;;;18.48;72.64;99767.34;8325191;28;20497;-79
2022/10/31 12:53:42;;;;;;;25.17;7.50;;;;;;;18.82;71.86;99761.34;8490022;27;20047;-79
2022/10/31 12:57:46;;;;;;;25.42;6.75;;;;;;;19.30;70.65;99748.56;8486337;27;20043;-78
2022/10/31 13:01:56;;;;;;;35.20;9.57;;;;;;;19.59;70.28;99753.69;8517270;27;20055;-80
2022/10/31 13:06:07;;;;;;;20.45;6.68;;;;;;;19.88;70.79;99748.94;8509115;27;20043;-79
2022/10/31 13:10:21;;;;;;;51.55;11.02;;;;;;;20.21;70.55;99757.53;8516680;27;20122;-80
2022/10/31 13:14:51;;;;;;;37.47;8.15;;;;;;;20.00;71.21;99751.53;8487941;27;20043;-80
2022/10/31 13:18:55;;;;;;;34.85;7.57;;;;;;;19.72;71.63;99746.97;8448759;27;20450;-80
2022/10/31 13:23:04;;;;;;;19.80;6.68;;;;;;;19.45;71.43;99739.63;8485043;27;20393;-80
2022/10/31 13:27:14;;;;;;;19.98;7.00;;;;;;;19.26;71.70;99740.28;8503559;27;20096;-80
2022/10/31 13:31:15;;;;;;;19.90;7.53;;;;;;;19.08;72.15;99738.22;8477616;27;20065;-80
2022/10/31 13:36:14;;;;;;;23.38;6.93;;;;;;;18.83;72.18;99749.25;8515737;27;20080;-80
2022/10/31 13:40:32;;;;;;;21.40;7.78;;;;;;;18.80;72.90;99747.22;8284113;28;20110;-81
2022/10/31 13:44:37;;;;;;;16.60;7.00;;;;;;;18.69;73.09;99729.69;8266025;28;20101;-81
2022/10/31 13:48:41;;;;;;;23.50;8.02;;;;;;;18.54;73.36;99731.25;8255211;28;20101;-80
2022/10/31 13:52:41;;;;;;;25.42;7.88;;;;;;;18.44;73.54;99730.91;8268620;28;20510;-81
2022/10/31 13:56:48;;;;;;;27.13;7.80;;;;;;;18.30;74.40;99733.97;8289972;28;20038;-81
2022/10/31 14:01:21;;;;;;;29.45;7.50;;;;;;;18.17;74.83;99737.09;8293596;28;20387;-81
2022/10/31 14:05:29;;;;;;;27.92;8.93;;;;;;;18.09;75.17;99725.94;8295709;28;20053;-82
2022/10/31 14:09:50;;;;;;;26.05;8.65;;;;;;;18.00;75.32;99733.47;8283876;28;20539;-81
2022/10/31 14:13:51;;;;;;;30.65;7.70;;;;;;;17.90;75.67;99722.19;8313347;27;20053;-81
2022/10/31 14:17:56;;;;;;;31.98;8.23;;;;;;;17.82;76.49;99720.38;8504115;27;20050;-81
2022/10/31 14:21:57;;;;;;;23.20;8.02;;;;;;;17.71;77.12;99725.50;8490658;27;20490;-81
2022/10/31 14:26:19;;;;;;;28.50;8.23;;;;;;;17.60;77.76;99719.69;8504456;27;20051;-81
2022/10/31 14:30:24;;;;;;;25.15;8.38;;;;;;;17.48;78.19;99716.09;8507477;27;20460;-81
2022/10/31 14:34:35;;;;;;;22.40;7.57;;;;;;;17.35;78.92;99714.47;8512786;27;20063;-82
2022/10/31 14:38:50;;;;;;;16.42;7.35;;;;;;;17.23;79.40;99716.06;8430891;28;20521;-81
2022/10/31 14:42:59;;;;;;;19.58;7.60;;;;;;;17.10;80.01;99717.16;8431549;28;20056;-81
2022/10/31 14:47:32;;;;;;;22.38;8.43;;;;;;;16.97;80.77;99712.81;8415744;28;20478;-81
2022/10/31 14:51:40;;;;;;;20.23;7.80;;;;;;;16.81;81.75;99714.56;8298529;28;20049;-81
2022/10/31 14:55:45;;;;;;;27.55;7.82;;;;;;;16.69;82.14;99714.50;8277739;28;20186;-81
2022/10/31 14:59:50;;;;;;;23.80;7.32;;;;;;;16.50;83.01;99714.94;8275654;28;20439;-81
2022/10/31 15:03:51;;;;;;;22.33;8.07;;;;;;;16.32;83.63;99714.31;8282558;28;20054;-82
2022/10/31 15:07:57;;;;;;;28.70;11.32;;;;;;;16.14;84.40;99718.25;8316737;28;20118;-82
2022/10/31 15:12:00;;;;;;;29.42;9.88;;;;;;;15.95;85.10;99715.19;8365411;28;20571;-81
2022/10/31 15:16:00;;;;;;;22.17;10.30;;;;;;;15.76;86.15;99720.22;8354309;28;20059;-81
2022/10/31 15:20:03;;;;;;;22.65;10.20;;;;;;;15.56;86.79;99719.84;8351947;28;20048;-81
2022/10/31 15:24:04;;;;;;;24.27;10.27;;;;;;;15.37;87.38;99716.69;8358285;28;20088;-82
2022/10/31 15:28:27;;;;;;;27.25;9.88;;;;;;;15.17;88.03;99717.41;8494433;27;20051;-81
2022/10/31 15:32:29;;;;;;;23.30;9.73;;;;;;;15.01;88.28;99719.03;8509931;27;20086;-81
2022/10/31 15:36:30;;;;;;;25.17;9.98;;;;;;;14.86;88.64;99730.41;8531296;27;20159;-81
2022/10/31 15:40:30;;;;;;;25.02;9.70;;;;;;;14.67;89.32;99726.09;8480129;27;20155;-82
2022/10/31 15:44:34;;;;;;;27.63;12.63;;;;;;;14.51;89.50;99722.25;8538357;27;20047;-81
2022/10/31 15:48:36;;;;;;;19.65;9.88;;;;;;;14.38;89.44;99717.78;8501870;27;20068;-81
2022/10/31 15:52:43;;;;;;;19.77;10.13;;;;;;;14.26;89.49;99725.72;8520781;27;20046;-81
2022/10/31 15:56:44;;;;;;;28.55;11.45;;;;;;;14.11;89.82;99735.13;8490032;27;20051;-81
2022/10/31 16:00:56;;;;;;;20.55;9.63;;;;;;;13.94;89.78;99741.31;8516076;27;20047;-81
2022/10/31 16:05:00;;;;;;;22.38;10.57;;;;;;;13.82;89.96;99732.97;8434324;28;20052;-81
2022/10/31 16:09:03;;;;;;;23.10;9.38;;;;;;;13.72;90.29;99735.16;8419907;28;20067;-81
2022/10/31 16:13:08;;;;;;;25.17;9.27;;;;;;;13.62;90.32;99736.25;8405579;28;20083;-81
2022/10/31 16:17:14;;;;;;;24.50;11.98;;;;;;;13.49;90.45;99734.44;8432896;28;20055;-81
2022/10/31 16:21:15;;;;;;;26.65;11.00;;;;;;;13.39;90.89;99729.28;8431369;28;20040;-81
2022/10/31 16:25:22;;;;;;;24.92;9.10;;;;;;;13.31;90.47;99732.75;8416204;28;20040;-81
2022/10/31 16:29:44;;;;;;;27.80;11.82;;;;;;;13.18;90.67;99733.63;8413828;28;20053;-81
2022/10/31 16:33:46;;;;;;;25.35;11.23;;;;;;;13.05;90.70;99736.09;8427429;27;20058;-81
2022/10/31 16:37:46;;;;;;;21.55;10.00;;;;;;;12.96;91.05;99732.50;8484613;27;20043;-81
2022/10/31 16:41:51;;;;;;;23.70;10.55;;;;;;;12.87;91.27;99734.38;8528109;27;20415;-81
2022/10/31 16:45:52;;;;;;;21.80;9.23;;;;;;;12.75;91.51;99736.81;8503804;27;20043;-82
2022/10/31 16:49:53;;;;;;;18.92;8.32;;;;;;;12.68;91.27;99733.75;8521054;27;20083;-81
2022/10/31 16:53:54;;;;;;;26.73;9.68;;;;;;;12.61;91.15;99736.09;8528273;27;20043;-81
2022/10/31 16:57:57;;;;;;;22.48;9.98;;;;;;;12.53;91.32;99734.13;8506663;27;20502;-81
2022/10/31 17:01:58;;;;;;;24.80;9.13;;;;;;;12.45;91.43;99732.13;8514908;27;20054;-81
2022/10/31 17:06:00;;;;;;;23.67;8.77;;;;;;;12.36;91.49;99728.53;8483651;27;20047;-81
2022/10/31 17:10:00;;;;;;;22.67;9.43;;;;;;;12.27;91.61;99726.53;8510663;27;20039;-81
2022/10/31 17:14:03;;;;;;;33.28;9.90;;;;;;;12.21;91.60;99727.75;8512425;27;20438;-80
2022/10/31 17:18:04;;;;;;;19.25;8.82;;;;;;;12.11;91.71;99727.97;8513679;27;20492;-80
2022/10/31 17:22:05;;;;;;;27.48;8.88;;;;;;;12.07;91.45;99726.97;8508809;27;20046;-80
2022/10/31 17:26:09;;;;;;;20.73;9.10;;;;;;;12.05;91.48;99734.63;8503881;27;20054;-80
2022/10/31 17:30:12;;;;;;;23.45;8.68;;;;;;;12.03;91.33;99736.81;8476206;27;20055;-79
2022/10/31 17:34:13;;;;;;;29.17;9.77;;;;;;;11.98;91.45;99728.81;8513222;27;20039;-80
2022/10/31 17:38:14;;;;;;;15.90;9.20;;;;;;;11.92;91.80;99724.59;8518790;27;20399;-80
2022/10/31 17:42:15;;;;;;;21.60;9.23;;;;;;;11.87;91.91;99722.00;8516424;27;20039;-80
2022/10/31 17:46:18;;;;;;;23.52;9.68;;;;;;;11.78;91.83;99718.41;8506171;27;20045;-80
2022/10/31 17:50:21;;;;;;;19.58;10.40;;;;;;;11.72;92.32;99725.78;8516342;27;20054;-80
2022/10/31 17:54:22;;;;;;;25.02;9.43;;;;;;;11.68;92.38;99724.00;8511176;27;20039;-80
2022/10/31 17:58:23;;;;;;;16.42;8.77;;;;;;;11.62;92.65;99717.88;8502843;27;20167;-79
2022/10/31 18:02:24;;;;;;;22.33;9.40;;;;;;;11.58;92.42;99719.56;8509825;27;20058;-80
2022/10/31 18:06:25;;;;;;;23.13;9.35;;;;;;;11.56;92.49;99726.38;8503756;27;20142;-81
2022/10/31 18:10:27;;;;;;;24.90;10.27;;;;;;;11.53;92.72;99710.72;8499091;27;20039;-80
2022/10/31 18:14:29;;;;;;;17.55;9.57;;;;;;;11.51;92.84;99723.78;8425191;27;20053;-80
2022/10/31 18:18:31;;;;;;;19.55;8.38;;;;;;;11.47;93.07;99722.78;8503595;27;20053;-80
2022/10/31 18:22:32;;;;;;;21.00;9.05;;;;;;;11.42;93.02;99716.34;8478555;27;20844;-81
2022/10/31 18:26:33;;;;;;;21.92;10.23;;;;;;;11.42;92.71;99716.34;8508413;27;20049;-81
2022/10/31 18:30:39;;;;;;;19.67;9.10;;;;;;;11.38;92.80;99709.94;8508425;27;20472;-81
2022/10/31 18:34:40;;;;;;;24.05;9.80;;;;;;;11.37;92.75;99707.53;8505061;27;20908;-81
2022/10/31 18:38:45;;;;;;;24.75;11.20;;;;;;;11.32;92.80;99711.13;8475613;27;20673;-81
2022/10/31 18:42:46;;;;;;;24.92;12.20;;;;;;;11.27;92.77;99703.09;8506955;27;20411;-80
2022/10/31 18:46:47;;;;;;;28.85;14.57;;;;;;;11.23;93.22;99707.50;8510248;27;20058;-80
2022/10/31 18:50:56;;;;;;;37.13;18.00;;;;;;;11.19;93.37;99706.50;8516097;27;20042;-80
2022/10/31 18:54:57;;;;;;;40.20;19.95;;;;;;;11.17;93.17;99706.00;8514696;27;20414;-80
2022/10/31 18:59:03;;;;;;;49.60;20.00;;;;;;;11.14;93.18;99698.50;8521444;27;20046;-80